Time;durP1;ratioP1;P1;durP2;ratioP2;P2;SDS_P1;SDS_P2;PMS_P1;PMS_P2;Temp;Humidity;BMP_temperature;BMP_pressure;BME280_temperature;BME280_humidity;BME280_pressure;Samples;Min_cycle;Max_cycle;Signal;HPM_P1;HPM_P2
2022/02/10 00:16:50;;;;;;;10.77;4.00;;;;;;;4.76;67.94;97376.50;5052503;28;20135;-88
2022/02/10 00:22:14;;;;;;;8.98;4.63;;;;;;;4.64;68.06;97369.75;5103877;28;20051;-87
2022/02/10 00:25:26;;;;;;;6.80;4.72;;;;;;;4.65;68.41;97372.19;5104017;28;20076;-84
2022/02/10 00:36:25;;;;;;;9.73;5.35;;;;;;;4.51;70.69;97370.75;5103092;28;20059;-87
2022/02/10 00:39:05;;;;;;;9.32;4.72;;;;;;;4.56;68.49;97372.16;5102052;28;20052;-91
2022/02/10 00:41:36;;;;;;;7.95;4.55;;;;;;;4.50;67.60;97368.28;5101781;28;20147;-82
2022/02/10 00:44:05;;;;;;;9.80;5.13;;;;;;;4.44;66.86;97364.44;5101804;28;20056;-85
2022/02/10 00:46:36;;;;;;;6.15;3.95;;;;;;;4.36;66.60;97358.25;5101697;28;20056;-85
2022/02/10 00:49:05;;;;;;;7.13;3.88;;;;;;;4.26;66.59;97360.75;5102418;28;20044;-88
2022/02/10 00:51:34;;;;;;;7.43;3.80;;;;;;;4.21;66.80;97360.31;5101778;28;20131;-84
2022/02/10 00:54:03;;;;;;;6.82;4.53;;;;;;;4.25;69.35;97359.13;5101009;28;20177;-81
2022/02/10 00:56:31;;;;;;;5.10;3.15;;;;;;;4.26;67.68;97359.00;5101955;28;20116;-91
2022/02/10 00:59:10;;;;;;;7.85;4.38;;;;;;;4.22;67.04;97359.34;5104407;28;20078;-88
2022/02/10 01:10:26;;;;;;;7.95;3.85;;;;;;;3.88;67.46;97356.91;5102622;28;20067;-85
2022/02/10 01:13:00;;;;;;;6.22;3.88;;;;;;;3.87;67.27;97352.66;5098512;28;20052;-89
2022/02/10 01:29:36;;;;;;;6.35;3.00;;;;;;;3.88;69.24;97341.41;5100273;28;20059;-86
2022/02/10 01:32:08;;;;;;;5.90;3.10;;;;;;;3.89;69.66;97333.56;5100018;28;20072;-83
2022/02/10 01:34:42;;;;;;;9.35;3.60;;;;;;;3.89;68.29;97332.72;5099581;28;20051;-85
2022/02/10 01:37:11;;;;;;;5.28;3.58;;;;;;;3.82;67.88;97336.72;5099019;28;20134;-88
2022/02/10 01:39:47;;;;;;;6.75;3.33;;;;;;;3.79;68.04;97331.81;5099418;28;20131;-82
2022/02/10 02:04:25;;;;;;;6.57;3.22;;;;;;;3.43;67.88;97306.22;5102715;28;20112;-89
2022/02/10 02:06:57;;;;;;;8.02;3.67;;;;;;;3.41;68.38;97312.41;5104641;28;20083;-86
2022/02/10 02:09:28;;;;;;;4.97;3.50;;;;;;;3.39;68.18;97303.97;5103644;28;20063;-87
2022/02/10 02:12:02;;;;;;;4.25;3.13;;;;;;;3.41;68.73;97304.66;5102799;28;20040;-85
2022/02/10 02:14:33;;;;;;;5.63;3.17;;;;;;;3.42;68.26;97289.06;5101489;28;20581;-87
2022/02/10 02:17:04;;;;;;;4.40;2.85;;;;;;;3.42;68.24;97288.25;5101776;28;20058;-85
2022/02/10 02:19:35;;;;;;;5.55;3.47;;;;;;;3.39;68.11;97279.00;5102574;28;20059;-84
2022/02/10 02:22:07;;;;;;;4.78;2.85;;;;;;;3.38;68.04;97279.13;5102246;28;20064;-90
2022/02/10 02:24:36;;;;;;;4.30;3.03;;;;;;;3.36;68.06;97283.59;5102484;28;20147;-88
2022/02/10 02:27:17;;;;;;;13.70;4.10;;;;;;;3.33;68.03;97278.69;5103215;28;20437;-84
2022/02/10 02:29:58;;;;;;;6.10;3.20;;;;;;;3.32;68.37;97282.19;5103424;28;20056;-86
2022/02/10 02:32:34;;;;;;;4.53;2.60;;;;;;;3.27;68.53;97280.78;5101427;28;20043;-85
2022/02/10 02:35:22;;;;;;;6.93;3.42;;;;;;;3.25;67.88;97276.69;5102384;28;20048;-89
2022/02/10 02:38:10;;;;;;;7.43;2.90;;;;;;;3.23;68.13;97276.78;5102225;28;20048;-89
2022/02/10 03:05:44;;;;;;;3.03;2.28;;;;;;;3.44;67.54;97230.47;5116690;22;20056;-81
2022/02/10 03:08:16;;;;;;;2.95;2.47;;;;;;;3.48;69.16;97236.22;5096297;28;20056;-81
2022/02/10 03:11:03;;;;;;;4.38;2.72;;;;;;;3.55;68.76;97236.53;5095640;28;20060;-82
2022/02/10 03:13:35;;;;;;;6.78;3.10;;;;;;;3.60;69.00;97235.22;5095307;28;20055;-80
2022/02/10 03:16:33;;;;;;;4.80;3.10;;;;;;;3.69;69.58;97234.47;5073936;28;20446;-81
2022/02/10 03:19:07;;;;;;;6.15;3.50;;;;;;;3.77;68.32;97244.19;5073799;28;20059;-80
2022/02/10 03:22:01;;;;;;;6.80;2.80;;;;;;;3.79;68.85;97242.31;5073809;28;20044;-81
2022/02/10 04:01:10;;;;;;;3.42;2.30;;;;;;;3.87;66.33;97242.50;5077195;28;20044;-80
2022/02/10 04:04:05;;;;;;;4.03;2.38;;;;;;;3.82;66.28;97249.78;5076648;28;20056;-82
2022/02/10 04:12:47;;;;;;;2.20;1.83;;;;;;;3.93;67.07;97254.09;5169272;27;20281;-80
2022/02/10 04:15:25;;;;;;;3.13;1.98;;;;;;;3.91;66.27;97254.22;5158030;27;20051;-80
2022/02/10 04:18:18;;;;;;;3.70;2.38;;;;;;;3.86;66.11;97246.03;5151906;27;20050;-81
2022/02/10 04:20:54;;;;;;;3.53;2.10;;;;;;;3.85;65.65;97248.75;5155451;27;20058;-81
2022/02/10 04:23:36;;;;;;;2.65;2.35;;;;;;;3.84;67.67;97247.91;5154792;27;20054;-81
2022/02/10 04:26:18;;;;;;;4.13;2.20;;;;;;;3.83;66.47;97254.03;5153521;27;20058;-81
2022/02/10 04:32:07;;;;;;;6.20;2.67;;;;;;;3.68;66.00;97232.84;5151005;27;20446;-80
2022/02/10 04:37:58;;;;;;;5.72;2.28;;;;;;;3.69;66.16;97247.38;5152050;27;20054;-81
2022/02/10 04:43:38;;;;;;;3.53;2.63;;;;;;;3.56;65.79;97233.81;5151695;27;20046;-80
2022/02/10 04:57:40;;;;;;;6.50;2.53;;;;;;;3.27;66.27;97221.47;5151531;27;20051;-80
2022/02/10 05:00:27;;;;;;;4.45;2.95;;;;;;;3.28;66.39;97223.13;5151059;27;20051;-80
2022/02/10 05:12:06;;;;;;;3.70;2.83;;;;;;;3.42;67.33;97211.72;5092342;27;20106;-79
2022/02/10 05:17:13;;;;;;;4.95;3.30;;;;;;;3.48;66.19;97205.25;5149952;27;20047;-80
2022/02/10 05:22:42;;;;;;;6.68;3.45;;;;;;;3.44;66.01;97214.16;5121212;27;20100;-80
2022/02/10 05:33:47;;;;;;;7.30;3.88;;;;;;;3.39;66.03;97221.44;5159334;27;20058;-80
2022/02/10 05:36:18;;;;;;;4.57;3.47;;;;;;;3.32;65.76;97215.13;5152195;27;20498;-81
2022/02/10 05:38:50;;;;;;;5.15;3.28;;;;;;;3.22;67.13;97208.13;5145898;27;20054;-81
2022/02/10 05:47:33;;;;;;;5.35;3.72;;;;;;;3.15;67.48;97224.19;5122154;27;20137;-80
2022/02/10 05:55:49;;;;;;;11.32;5.57;;;;;;;3.01;66.02;97212.38;5131919;27;20048;-80
2022/02/10 05:58:25;;;;;;;8.00;4.47;;;;;;;3.00;66.58;97213.34;5132167;28;20043;-80
2022/02/10 06:51:14;;;;;;;6.00;4.22;;;;;;;3.19;65.83;97220.44;5108596;27;20056;-76
2022/02/10 06:53:51;;;;;;;7.70;4.10;;;;;;;3.15;65.72;97226.75;5117490;28;20055;-77
2022/02/10 06:56:49;;;;;;;7.55;3.50;;;;;;;3.09;65.41;97220.34;5129084;27;20493;-77
2022/02/10 07:08:02;;;;;;;5.00;3.22;;;;;;;2.97;66.16;97216.13;5089971;27;20371;-77
2022/02/10 07:10:59;;;;;;;4.38;3.10;;;;;;;2.99;66.93;97222.81;5089872;28;20059;-76
2022/02/10 07:13:49;;;;;;;4.53;3.03;;;;;;;3.06;67.21;97228.28;5089579;28;20044;-77
2022/02/10 07:50:10;;;;;;;6.00;4.30;;;;;;;4.55;63.06;97203.38;4988584;28;20054;-77
2022/02/10 07:53:06;;;;;;;7.40;4.32;;;;;;;4.57;63.27;97205.81;5049774;28;20049;-76
2022/02/10 07:55:58;;;;;;;7.18;4.43;;;;;;;4.58;63.09;97194.56;5049587;28;20057;-76
2022/02/10 07:58:45;;;;;;;8.10;4.85;;;;;;;4.56;62.78;97196.44;5062204;28;20071;-77
2022/02/10 08:57:09;;;;;;;10.70;5.18;;;;;;;8.49;54.64;97188.81;5054706;28;20049;-79
2022/02/10 09:00:02;;;;;;;8.85;5.72;;;;;;;8.77;54.34;97189.44;5055630;28;20052;-79
2022/02/10 09:05:28;;;;;;;8.95;5.13;;;;;;;9.43;54.45;97185.25;5070138;22;20045;-81
2022/02/10 09:19:21;;;;;;;7.38;4.88;;;;;;;10.84;54.54;97197.22;5063379;28;20056;-87
2022/02/10 09:22:41;;;;;;;7.80;4.60;;;;;;;11.12;50.53;97187.16;5064182;28;20092;-83
2022/02/10 09:55:59;;;;;;;7.30;2.90;;;;;;;13.91;47.61;97210.63;5046849;28;20049;-81
2022/02/10 09:58:37;;;;;;;5.07;3.13;;;;;;;14.13;49.10;97212.22;5060779;28;20076;-80
2022/02/10 10:01:19;;;;;;;3.63;2.95;;;;;;;14.32;48.71;97217.81;5062844;28;20071;-80
2022/02/10 10:04:00;;;;;;;4.18;2.38;;;;;;;14.52;45.64;97217.97;5065243;28;20052;-80
2022/02/10 10:06:50;;;;;;;4.68;2.40;;;;;;;14.72;48.05;97207.63;5064060;28;20077;-82
2022/02/10 10:09:32;;;;;;;7.93;3.38;;;;;;;14.93;45.05;97219.88;5066917;28;20056;-81
2022/02/10 10:18:31;;;;;;;3.33;2.28;;;;;;;15.71;42.69;97211.69;5059395;28;20047;-80
2022/02/10 10:24:08;;;;;;;4.35;2.65;;;;;;;16.37;44.75;97227.56;5055822;28;20499;-81
2022/02/10 10:26:58;;;;;;;6.88;3.10;;;;;;;16.92;42.05;97227.31;5064164;28;20052;-79
2022/02/10 10:52:11;;;;;;;5.07;3.22;;;;;;;20.29;33.66;97203.56;5058353;28;20064;-82
2022/02/10 10:54:45;;;;;;;4.75;3.08;;;;;;;20.24;34.58;97198.94;5059007;28;20055;-79
2022/02/10 10:57:18;;;;;;;6.18;2.47;;;;;;;19.74;36.19;97194.81;5068224;28;20051;-77
2022/02/10 11:00:26;;;;;;;6.65;3.50;;;;;;;19.38;35.70;97203.63;5076867;28;20139;-77
2022/02/10 11:37:23;;;;;;;7.63;4.25;;;;;;;18.40;36.64;97167.44;5058556;28;20041;-79
2022/02/10 11:40:08;;;;;;;;;;;;;;;17.75;40.57;97162.44;5061873;28;20080;-79
2022/02/10 14:13:49;;;;;;;10.32;6.80;;;;;;;10.47;61.25;97146.47;5093044;28;20055;-81
2022/02/10 14:16:34;;;;;;;9.85;6.57;;;;;;;10.45;61.18;97151.03;5091629;28;20055;-81
2022/02/10 14:19:13;;;;;;;10.68;6.57;;;;;;;10.38;60.10;97163.13;5092085;28;20053;-79
2022/02/10 14:21:47;;;;;;;13.15;6.65;;;;;;;10.30;60.69;97156.94;5092897;28;20048;-78
2022/02/10 14:27:02;;;;;;;12.60;6.22;;;;;;;10.16;60.43;97154.97;5093395;28;20059;-80
2022/02/10 14:29:30;;;;;;;10.05;6.57;;;;;;;10.12;60.67;97161.50;5093616;28;20113;-77
2022/02/10 14:31:57;;;;;;;8.45;5.50;;;;;;;10.07;59.74;97155.97;5092521;28;20048;-80
2022/02/10 14:34:26;;;;;;;6.97;5.35;;;;;;;10.06;61.08;97149.94;5091789;28;20048;-77
2022/02/10 14:37:11;;;;;;;8.85;6.18;;;;;;;10.04;62.09;97151.91;5092006;28;20071;-81
2022/02/10 14:39:59;;;;;;;9.48;5.57;;;;;;;10.03;63.27;97158.09;5092199;28;20425;-78
2022/02/10 15:36:06;;;;;;;11.57;6.78;;;;;;;9.03;65.17;97180.75;5073849;28;20063;-82
2022/02/10 16:12:24;;;;;;;13.30;8.20;;;;;;;8.60;66.31;97193.75;5079294;28;20136;-79
2022/02/10 16:14:53;;;;;;;10.23;6.15;;;;;;;8.57;65.31;97188.88;5078264;28;20099;-81
2022/02/10 16:17:23;;;;;;;11.60;6.43;;;;;;;8.58;64.47;97194.88;5079186;28;20056;-79
2022/02/10 16:19:53;;;;;;;10.10;7.07;;;;;;;8.55;65.59;97192.56;5078494;28;20052;-79
2022/02/10 16:22:27;;;;;;;9.73;7.53;;;;;;;8.51;65.88;97186.88;5078784;28;20056;-78
2022/02/10 16:25:00;;;;;;;14.20;7.28;;;;;;;8.51;66.50;97194.66;5081627;28;20059;-82
2022/02/10 16:27:32;;;;;;;9.23;7.43;;;;;;;8.49;66.26;97194.00;5080734;28;20048;-81
2022/02/10 16:30:07;;;;;;;13.73;7.00;;;;;;;8.42;66.04;97188.59;5079421;28;20047;-79
2022/02/10 16:32:40;;;;;;;11.32;6.88;;;;;;;8.39;66.48;97185.47;5078312;28;20041;-78
2022/02/10 16:35:14;;;;;;;11.00;7.18;;;;;;;8.40;66.83;97189.72;5079112;28;20041;-78
2022/02/10 16:37:46;;;;;;;12.45;7.10;;;;;;;8.41;66.53;97183.56;5078798;28;20135;-80
2022/02/10 16:40:21;;;;;;;10.10;6.55;;;;;;;8.39;66.62;97177.66;5079435;28;20052;-78
2022/02/10 16:42:54;;;;;;;13.10;7.53;;;;;;;8.39;66.22;97177.66;5081175;28;20058;-78
2022/02/10 16:45:27;;;;;;;8.60;5.80;;;;;;;8.39;66.05;97178.47;5077162;28;20053;-79
2022/02/10 16:48:00;;;;;;;10.55;7.18;;;;;;;8.41;67.87;97175.75;5077797;28;20061;-81
2022/02/10 16:50:34;;;;;;;8.88;6.40;;;;;;;8.37;65.11;97180.41;5079274;28;20047;-78
2022/02/10 16:53:06;;;;;;;13.10;7.13;;;;;;;8.35;67.84;97189.34;5078520;28;20055;-78
2022/02/10 16:55:45;;;;;;;16.20;7.78;;;;;;;8.37;68.54;97182.19;5081112;28;20497;-82
2022/02/10 16:58:23;;;;;;;9.73;6.72;;;;;;;8.39;68.92;97188.88;5082801;28;20108;-80
2022/02/10 17:01:35;;;;;;;12.00;7.68;;;;;;;8.42;68.63;97195.59;5077668;28;20041;-79
2022/02/10 17:18:24;;;;;;;10.57;6.95;;;;;;;8.42;69.45;97185.19;5102269;28;20046;-86
2022/02/10 17:21:12;;;;;;;9.43;6.88;;;;;;;8.43;69.28;97181.63;5081075;28;20056;-83
2022/02/10 17:26:45;;;;;;;8.82;6.82;;;;;;;8.44;69.28;97172.88;5079389;28;20056;-84
2022/02/10 17:29:26;;;;;;;9.98;6.72;;;;;;;8.44;68.60;97178.88;5095709;28;20048;-87
2022/02/10 17:32:12;;;;;;;11.48;7.38;;;;;;;8.45;69.46;97192.69;5101937;28;20048;-85
2022/02/10 17:35:02;;;;;;;12.82;7.47;;;;;;;8.46;69.00;97189.09;5101028;28;20059;-82
2022/02/10 17:41:24;;;;;;;9.52;7.20;;;;;;;8.47;68.83;97185.53;5099844;28;20052;-79
2022/02/10 17:46:03;;;;;;;11.60;7.90;;;;;;;8.41;68.55;97193.94;5070382;28;20159;-87
2022/02/10 17:51:29;;;;;;;11.57;7.28;;;;;;;8.35;68.50;97186.72;5082209;28;20099;-86
2022/02/10 17:53:58;;;;;;;10.55;7.43;;;;;;;8.33;68.38;97204.25;5082859;28;20063;-83
2022/02/10 17:56:32;;;;;;;11.50;7.90;;;;;;;8.34;69.93;97204.13;5081083;28;20053;-85
2022/02/10 17:59:00;;;;;;;13.32;7.95;;;;;;;8.36;69.63;97201.38;5081707;28;20056;-86
2022/02/10 18:01:29;;;;;;;11.57;7.50;;;;;;;8.36;69.41;97198.78;5080598;28;20056;-84
2022/02/10 18:03:58;;;;;;;11.75;7.82;;;;;;;8.38;69.07;97194.25;5075996;28;20055;-79
2022/02/10 18:06:28;;;;;;;10.45;7.13;;;;;;;8.38;69.36;97191.63;5076003;28;20057;-77
2022/02/10 18:12:49;;;;;;;;;;;;;;;8.39;69.84;97195.84;5067524;28;20053;-78
2022/02/10 18:15:09;;;;;;;22.95;14.10;;;;;;;8.38;68.41;97196.84;5077041;28;20382;-77
2022/02/10 18:17:44;;;;;;;20.75;13.38;;;;;;;8.36;69.44;97198.78;5076869;28;20045;-77
2022/02/10 18:20:17;;;;;;;;;;;;;;;8.38;69.27;97194.25;5078359;28;20494;-78
2022/02/10 18:23:00;;;;;;;12.13;8.57;;;;;;;8.36;69.15;97196.19;5080728;28;20398;-78
2022/02/10 18:25:43;;;;;;;11.57;8.40;;;;;;;8.32;68.20;97195.66;5080962;28;20049;-77
2022/02/10 18:28:50;;;;;;;14.20;9.55;;;;;;;8.28;69.56;97193.50;5080130;28;20052;-80
2022/02/10 18:35:29;;;;;;;12.40;8.68;;;;;;;8.24;69.06;97182.59;5080360;28;20051;-85
2022/02/10 19:06:02;;;;;;;13.57;9.75;;;;;;;8.03;69.85;97180.34;5079525;28;20509;-77
2022/02/10 19:08:45;;;;;;;12.88;9.38;;;;;;;8.04;70.51;97182.78;5079592;28;20048;-77
2022/02/10 19:11:18;;;;;;;12.02;9.65;;;;;;;8.04;70.12;97172.41;5080049;28;20044;-78
2022/02/10 19:13:48;;;;;;;14.93;10.48;;;;;;;8.04;70.41;97180.19;5084684;28;20049;-81
2022/02/10 19:16:15;;;;;;;12.05;9.25;;;;;;;8.04;70.76;97176.78;5084821;28;20048;-81
2022/02/10 19:18:53;;;;;;;14.00;9.45;;;;;;;8.05;70.97;97171.44;5082863;28;20218;-79
2022/02/10 19:21:21;;;;;;;14.52;9.18;;;;;;;8.07;70.55;97173.06;5085436;28;20052;-83
2022/02/10 19:23:48;;;;;;;13.15;9.55;;;;;;;8.06;70.49;97169.66;5083851;28;20079;-78
2022/02/10 19:26:16;;;;;;;40.33;24.38;;;;;;;8.07;70.51;97181.69;5084397;28;20049;-83
2022/02/10 19:28:43;;;;;;;20.25;11.88;;;;;;;8.04;68.34;97179.38;5084075;28;20051;-79
2022/02/10 19:31:12;;;;;;;12.50;9.30;;;;;;;8.05;70.01;97187.03;5083281;28;20053;-79
2022/02/10 19:33:40;;;;;;;11.57;9.10;;;;;;;8.02;68.25;97174.34;5081662;28;20048;-83
2022/02/10 19:36:09;;;;;;;14.23;9.93;;;;;;;8.03;70.67;97175.16;5080475;28;20044;-80
2022/02/10 19:38:37;;;;;;;15.23;8.98;;;;;;;8.06;70.55;97167.06;5084227;28;20052;-79
2022/02/10 19:41:04;;;;;;;12.88;8.93;;;;;;;8.06;70.61;97169.66;5080911;28;20057;-79
2022/02/10 19:43:52;;;;;;;11.35;9.07;;;;;;;8.05;70.77;97170.63;5082306;28;20048;-80
2022/02/10 19:46:19;;;;;;;10.65;8.07;;;;;;;8.02;70.27;97173.50;5081596;28;20049;-78
2022/02/10 19:48:48;;;;;;;15.70;9.45;;;;;;;8.01;70.61;97161.50;5083007;28;20052;-82
2022/02/10 19:51:17;;;;;;;12.63;8.68;;;;;;;7.98;68.72;97161.78;5083075;28;20116;-78
2022/02/10 19:53:44;;;;;;;11.15;7.75;;;;;;;7.93;66.80;97161.44;5086294;28;20056;-81
2022/02/10 19:56:13;;;;;;;10.07;8.30;;;;;;;7.92;68.44;97158.03;5085670;28;20048;-82
2022/02/10 19:58:41;;;;;;;12.57;9.23;;;;;;;7.94;69.51;97161.28;5086374;28;20055;-83
2022/02/10 20:01:09;;;;;;;11.70;8.27;;;;;;;7.94;68.72;97165.69;5086773;28;20049;-84
2022/02/10 20:03:40;;;;;;;9.20;7.65;;;;;;;7.87;67.72;97159.44;5085290;28;20055;-81
2022/02/10 20:06:08;;;;;;;14.73;8.38;;;;;;;7.81;66.18;97159.09;5085661;28;20045;-79
2022/02/10 20:08:37;;;;;;;12.65;8.35;;;;;;;7.80;67.89;97160.03;5086763;28;20049;-81
2022/02/10 20:11:05;;;;;;;11.57;7.20;;;;;;;7.76;65.72;97157.88;5086998;28;20044;-82
2022/02/10 20:13:34;;;;;;;8.73;6.60;;;;;;;7.74;66.66;97158.06;5085943;28;20059;-84
2022/02/10 20:16:07;;;;;;;11.07;7.30;;;;;;;7.70;66.66;97164.53;5085501;28;20049;-82
2022/02/10 20:18:35;;;;;;;11.32;6.65;;;;;;;7.67;65.17;97164.00;5085276;28;20045;-84
2022/02/10 20:21:03;;;;;;;10.85;6.88;;;;;;;7.67;68.35;97164.78;5085936;28;20055;-79
2022/02/10 20:23:33;;;;;;;9.10;6.85;;;;;;;7.71;69.05;97154.94;5086865;28;20048;-86
2022/02/10 20:26:09;;;;;;;7.80;5.90;;;;;;;7.73;69.76;97159.00;5086818;28;20053;-87
2022/02/10 20:28:37;;;;;;;10.85;5.97;;;;;;;7.73;69.05;97143.44;5086213;28;20075;-81
2022/02/10 20:31:05;;;;;;;9.07;5.65;;;;;;;7.74;68.16;97150.28;5084655;28;20048;-80
2022/02/10 20:33:32;;;;;;;8.27;5.32;;;;;;;7.71;68.55;97147.97;5084479;28;20052;-79
2022/02/10 20:36:02;;;;;;;8.25;5.40;;;;;;;7.72;67.25;97141.81;5083365;28;20052;-81
2022/02/10 20:38:31;;;;;;;7.05;5.05;;;;;;;7.73;69.20;97151.22;5085768;28;20082;-82
2022/02/10 20:41:01;;;;;;;7.93;4.60;;;;;;;7.72;66.90;97143.56;5085773;28;20071;-82
2022/02/10 20:43:31;;;;;;;7.00;4.95;;;;;;;7.68;68.08;97148.28;5084417;28;20075;-81
2022/02/10 20:46:02;;;;;;;8.52;4.28;;;;;;;7.64;65.45;97145.16;5083657;28;20049;-80
2022/02/10 20:48:32;;;;;;;5.88;4.28;;;;;;;7.64;68.14;97145.16;5085224;28;20059;-81
2022/02/10 20:51:00;;;;;;;6.85;4.50;;;;;;;7.67;67.70;97146.63;5083804;28;20049;-88
2022/02/10 20:53:30;;;;;;;7.68;4.13;;;;;;;7.71;69.54;97149.75;5085054;28;20053;-84
2022/02/10 20:56:02;;;;;;;7.20;3.70;;;;;;;7.64;65.09;97155.53;5083854;28;20063;-80
2022/02/10 20:58:32;;;;;;;6.40;4.78;;;;;;;7.60;65.86;97159.38;5068945;28;20052;-80
2022/02/10 21:01:02;;;;;;;7.68;4.03;;;;;;;7.57;65.64;97158.88;5064847;28;20655;-79
2022/02/10 21:03:35;;;;;;;5.45;3.97;;;;;;;7.55;64.54;97166.00;5064260;28;20073;-83
2022/02/10 21:06:10;;;;;;;6.40;4.30;;;;;;;7.53;66.61;97160.16;5069997;22;20057;-81
2022/02/10 21:08:44;;;;;;;6.05;4.40;;;;;;;7.56;67.50;97163.25;5053280;28;20052;-81
2022/02/10 21:11:13;;;;;;;5.15;4.07;;;;;;;7.58;68.35;97165.69;5053362;28;20060;-81
2022/02/10 21:13:42;;;;;;;5.53;3.47;;;;;;;7.58;66.23;97155.31;5052398;28;20049;-81
2022/02/10 21:16:09;;;;;;;5.10;3.95;;;;;;;7.58;66.16;97155.31;5050209;28;20522;-81
2022/02/10 21:18:38;;;;;;;6.20;3.67;;;;;;;7.55;66.20;97156.44;5050835;28;20422;-81
2022/02/10 21:21:10;;;;;;;4.22;3.83;;;;;;;7.57;66.38;97145.91;5052319;28;20051;-81
2022/02/10 21:23:44;;;;;;;4.38;3.78;;;;;;;7.57;65.23;97138.13;5053150;28;20499;-81
2022/02/10 21:26:15;;;;;;;5.30;3.67;;;;;;;7.60;66.76;97127.44;5052506;28;20075;-81
2022/02/10 21:28:43;;;;;;;5.05;3.80;;;;;;;7.61;66.16;97129.88;5052996;28;20072;-81
2022/02/10 21:31:11;;;;;;;6.53;4.55;;;;;;;7.62;68.09;97133.28;5053048;28;20056;-81
2022/02/10 21:33:55;;;;;;;7.20;4.55;;;;;;;7.65;69.29;97130.38;5052948;28;20056;-80
2022/02/10 21:39:23;;;;;;;4.00;3.28;;;;;;;7.70;69.41;97128.16;5052277;28;20052;-81
2022/02/10 21:47:49;;;;;;;5.57;3.95;;;;;;;7.66;66.60;97121.63;5052142;28;20099;-81
2022/02/10 22:05:02;;;;;;;6.20;4.53;;;;;;;7.60;65.73;97085.88;5045849;28;20057;-81
2022/02/10 22:10:31;;;;;;;8.15;4.53;;;;;;;7.50;63.68;97075.59;5056298;28;20057;-81
2022/02/10 22:18:35;;;;;;;10.18;6.07;;;;;;;7.32;62.80;97074.78;5056040;28;20053;-81
2022/02/10 22:21:05;;;;;;;8.48;5.65;;;;;;;7.29;62.69;97078.50;5056220;28;20052;-81
2022/02/10 22:23:35;;;;;;;10.15;5.80;;;;;;;7.31;64.59;97078.34;5055850;28;20045;-81
2022/02/10 22:26:06;;;;;;;8.93;6.03;;;;;;;7.29;63.47;97078.50;5055811;28;20175;-81
2022/02/10 22:28:46;;;;;;;10.10;6.65;;;;;;;7.25;63.02;97077.16;5055755;28;20464;-81
2022/02/10 22:31:26;;;;;;;7.32;6.30;;;;;;;7.21;63.22;97073.22;5056014;28;20053;-81
2022/02/10 22:34:06;;;;;;;11.30;6.72;;;;;;;7.14;63.34;97073.00;5055751;28;20057;-81
2022/02/10 22:36:36;;;;;;;9.02;5.85;;;;;;;7.09;63.07;97069.25;5055407;28;20045;-81
2022/02/10 22:39:05;;;;;;;6.80;5.28;;;;;;;6.98;63.37;97071.09;5056030;28;20049;-82
2022/02/10 22:41:33;;;;;;;12.85;8.90;;;;;;;6.94;63.43;97068.94;5055922;28;20049;-81
2022/02/10 22:44:03;;;;;;;7.35;5.30;;;;;;;6.88;63.60;97059.97;5055547;28;20048;-81
2022/02/10 22:46:32;;;;;;;10.57;5.30;;;;;;;6.81;63.17;97061.50;5055168;28;20426;-81
2022/02/10 22:49:01;;;;;;;7.50;5.35;;;;;;;6.78;63.67;97059.22;5055322;28;20063;-80
2022/02/10 22:51:31;;;;;;;8.18;4.85;;;;;;;6.76;63.41;97066.34;5053951;28;20056;-80
2022/02/10 22:53:59;;;;;;;6.45;4.53;;;;;;;6.76;63.76;97066.34;5055170;28;20056;-80
2022/02/10 22:56:29;;;;;;;4.45;4.05;;;;;;;6.79;63.63;97066.03;5054175;28;20053;-80
2022/02/10 22:58:59;;;;;;;5.30;4.20;;;;;;;6.82;63.50;97060.53;5054737;28;20503;-80
2022/02/10 23:01:27;;;;;;;8.15;4.35;;;;;;;6.83;63.55;97061.38;5054624;28;20080;-80
2022/02/10 23:03:55;;;;;;;6.40;4.68;;;;;;;6.81;63.14;97058.91;5054616;28;20057;-80
2022/02/10 23:06:25;;;;;;;7.20;4.15;;;;;;;6.77;63.58;97055.00;5054585;28;20052;-81
2022/02/10 23:08:53;;;;;;;4.53;4.00;;;;;;;6.74;63.56;97053.50;5056176;28;20049;-80
2022/02/10 23:11:26;;;;;;;6.15;4.15;;;;;;;6.74;63.88;97048.31;5055827;28;20056;-80
2022/02/10 23:13:55;;;;;;;5.10;3.90;;;;;;;6.80;63.74;97041.75;5055493;28;20061;-80
2022/02/10 23:16:25;;;;;;;4.88;3.67;;;;;;;6.86;63.55;97038.53;5054754;28;20420;-81
2022/02/10 23:18:53;;;;;;;4.32;3.38;;;;;;;6.89;63.25;97040.06;5054783;28;20045;-80
2022/02/10 23:21:21;;;;;;;4.10;3.30;;;;;;;6.89;62.95;97046.03;5054968;28;20061;-80
2022/02/10 23:23:52;;;;;;;4.18;3.38;;;;;;;6.92;63.05;97037.97;5054969;28;20056;-80
2022/02/10 23:26:24;;;;;;;7.80;3.88;;;;;;;6.92;63.00;97045.75;5054148;28;20049;-80
2022/02/10 23:28:54;;;;;;;3.72;3.25;;;;;;;6.91;63.30;97041.53;5054416;28;20548;-79
2022/02/10 23:31:23;;;;;;;7.55;3.70;;;;;;;6.91;63.30;97038.94;5054554;28;20045;-80
2022/02/10 23:33:55;;;;;;;5.82;3.63;;;;;;;6.91;63.38;97023.38;5054291;28;20056;-80
2022/02/10 23:36:41;;;;;;;5.22;3.78;;;;;;;6.92;63.11;97030.19;5053761;28;20060;-80
2022/02/10 23:39:14;;;;;;;5.20;3.88;;;;;;;6.88;63.61;97021.06;5054345;28;20063;-81
2022/02/10 23:44:35;;;;;;;6.95;4.40;;;;;;;6.83;63.71;97025.06;5050896;28;20493;-80
2022/02/10 23:47:05;;;;;;;6.82;4.38;;;;;;;6.82;63.87;97019.06;5053731;28;20052;-80
2022/02/10 23:49:35;;;;;;;8.43;5.10;;;;;;;6.84;63.77;97016.31;5054805;28;20056;-80
2022/02/10 23:52:05;;;;;;;5.13;4.10;;;;;;;6.86;63.68;97015.19;5054591;28;20053;-80
2022/02/10 23:54:38;;;;;;;8.00;4.22;;;;;;;6.87;64.02;97022.03;5054787;28;20106;-80
2022/02/10 23:57:11;;;;;;;5.43;3.97;;;;;;;6.89;63.62;97009.75;5053760;28;20045;-80
2022/02/10 23:59:56;;;;;;;5.50;3.45;;;;;;;6.92;63.79;97017.22;5053837;28;20053;-80
